createdAt,value
2022-09-30T00:01:26.833Z,4.27
2022-09-30T00:03:55.390Z,9.23
2022-09-30T00:06:23.861Z,3.60
2022-09-30T00:08:51.989Z,4.47
2022-09-30T00:11:21.721Z,3.83
2022-09-30T00:13:51.667Z,4.17
2022-09-30T00:16:22.208Z,3.67
2022-09-30T00:18:51.301Z,3.67
2022-09-30T00:21:19.214Z,5.13
2022-09-30T00:23:47.119Z,3.07
2022-09-30T00:26:17.645Z,4.23
2022-09-30T00:28:46.161Z,4.23
2022-09-30T00:31:16.864Z,4.37
2022-09-30T00:34:06.833Z,4.20
2022-09-30T00:36:36.382Z,2.40
2022-09-30T00:39:05.769Z,2.23
2022-09-30T00:41:34.362Z,4.70
2022-09-30T00:44:02.803Z,5.20
2022-09-30T00:46:35.826Z,3.17
2022-09-30T00:49:11.283Z,2.00
2022-09-30T00:51:42.338Z,2.13
2022-09-30T00:54:11.962Z,2.80
2022-09-30T00:56:42.017Z,2.57
2022-09-30T00:59:12.267Z,3.07
2022-09-30T01:01:42.326Z,2.40
2022-09-30T01:04:15.038Z,4.23
2022-09-30T01:06:43.752Z,3.63
2022-09-30T01:09:12.536Z,2.30
2022-09-30T01:11:40.948Z,2.07
2022-09-30T01:14:11.290Z,2.80
2022-09-30T01:16:51.726Z,2.00
2022-09-30T01:19:37.234Z,1.90
2022-09-30T01:22:23.079Z,3.20
2022-09-30T01:25:16.771Z,1.57
2022-09-30T01:28:26.565Z,1.63
2022-09-30T01:31:09.223Z,6.10
2022-09-30T01:33:44.184Z,2.27
2022-09-30T01:36:29.727Z,1.57
2022-09-30T01:39:07.078Z,1.80
2022-09-30T01:41:42.404Z,2.33
2022-09-30T01:44:15.728Z,1.70
2022-09-30T01:46:47.358Z,2.13
2022-09-30T01:49:21.712Z,4.20
2022-09-30T01:51:54.842Z,2.17
2022-09-30T01:54:28.004Z,3.50
2022-09-30T01:57:00.209Z,1.53
2022-09-30T01:59:33.528Z,5.43
2022-09-30T02:02:08.410Z,4.20
2022-09-30T02:04:38.721Z,5.83
2022-09-30T02:07:09.506Z,5.37
2022-09-30T02:09:40.510Z,3.17
2022-09-30T02:12:10.688Z,4.80
2022-09-30T02:14:42.717Z,3.67
2022-09-30T02:17:16.425Z,6.77
2022-09-30T02:19:47.136Z,10.00
2022-09-30T02:22:17.907Z,3.47
2022-09-30T02:24:46.249Z,4.13
2022-09-30T02:27:17.502Z,3.83
2022-09-30T02:29:49.702Z,3.37
2022-09-30T02:32:21.994Z,2.23
2022-09-30T02:34:52.284Z,4.60
2022-09-30T02:37:23.078Z,7.10
2022-09-30T02:39:54.363Z,5.90
2022-09-30T02:42:26.806Z,5.77
2022-09-30T02:44:56.235Z,5.63
2022-09-30T02:47:29.502Z,6.47
2022-09-30T02:50:02.366Z,7.90
2022-09-30T02:52:39.233Z,6.60
2022-09-30T02:55:17.895Z,9.40
2022-09-30T02:57:54.850Z,6.70
2022-09-30T03:00:24.168Z,7.07
2022-09-30T03:02:58.060Z,8.17
2022-09-30T03:05:26.198Z,7.27
2022-09-30T03:07:54.087Z,6.83
2022-09-30T03:10:21.964Z,7.23
2022-09-30T03:13:07.482Z,4.43
2022-09-30T03:15:44.735Z,5.23
2022-09-30T03:18:31.793Z,3.50
2022-09-30T03:21:09.683Z,6.27
2022-09-30T03:24:11.560Z,3.97
2022-09-30T03:26:46.864Z,3.13
2022-09-30T03:29:22.712Z,3.97
2022-09-30T03:31:59.023Z,3.83
2022-09-30T03:34:33.321Z,3.97
2022-09-30T03:37:04.495Z,5.73
2022-09-30T03:39:41.422Z,8.97
2022-09-30T03:42:13.487Z,7.33
2022-09-30T03:44:45.663Z,9.73
2022-09-30T03:47:16.246Z,8.53
2022-09-30T03:49:49.154Z,7.33
2022-09-30T03:52:17.602Z,9.83
2022-09-30T03:54:47.436Z,6.17
2022-09-30T03:57:15.498Z,9.47
2022-09-30T03:59:43.457Z,8.13
2022-09-30T04:02:13.466Z,8.47
2022-09-30T04:04:42.065Z,13.60
2022-09-30T04:07:11.719Z,10.10
2022-09-30T04:09:40.325Z,11.13
2022-09-30T04:12:08.868Z,6.73
2022-09-30T04:14:36.970Z,4.03
2022-09-30T04:17:05.317Z,7.47
2022-09-30T04:19:38.281Z,8.20
2022-09-30T04:22:06.194Z,9.03
2022-09-30T04:24:36.115Z,9.00
2022-09-30T04:27:04.474Z,8.97
2022-09-30T04:29:32.445Z,13.17
2022-09-30T04:32:00.377Z,7.77
2022-09-30T04:34:28.274Z,8.00
2022-09-30T04:36:56.201Z,6.03
2022-09-30T04:39:24.139Z,7.27
2022-09-30T04:41:54.002Z,7.63
2022-09-30T04:44:22.765Z,7.13
2022-09-30T04:46:51.258Z,7.47
2022-09-30T04:49:19.352Z,6.30
2022-09-30T04:51:47.464Z,8.03
2022-09-30T04:54:16.623Z,7.27
2022-09-30T04:56:44.565Z,4.63
2022-09-30T04:59:13.966Z,7.93
2022-09-30T05:01:43.491Z,7.57
2022-09-30T05:04:12.348Z,8.17
2022-09-30T05:06:40.962Z,9.10
2022-09-30T05:09:09.130Z,8.63
2022-09-30T05:11:38.180Z,8.07
2022-09-30T05:14:08.857Z,7.97
2022-09-30T05:16:38.359Z,9.43
2022-09-30T05:19:06.498Z,8.23
2022-09-30T05:21:35.559Z,5.27
2022-09-30T05:24:03.679Z,9.70
2022-09-30T05:26:32.382Z,5.53
2022-09-30T05:29:00.247Z,9.73
2022-09-30T05:31:28.335Z,9.17
2022-09-30T05:33:58.379Z,5.00
2022-09-30T05:36:26.389Z,8.90
2022-09-30T05:38:54.675Z,8.13
2022-09-30T05:41:22.750Z,7.83
2022-09-30T05:43:50.630Z,6.93
2022-09-30T05:46:19.598Z,8.20
2022-09-30T05:48:47.922Z,9.23
2022-09-30T05:51:17.329Z,9.60
2022-09-30T05:53:45.201Z,9.30
2022-09-30T05:56:13.302Z,7.60
2022-09-30T05:58:42.289Z,5.77
2022-09-30T06:01:14.163Z,11.23
2022-09-30T06:03:42.754Z,8.90
2022-09-30T06:06:11.277Z,10.27
2022-09-30T06:08:41.448Z,5.03
2022-09-30T06:11:11.986Z,7.13
2022-09-30T06:13:40.821Z,7.30
2022-09-30T06:16:09.386Z,8.67
2022-09-30T06:18:41.153Z,11.57
2022-09-30T06:21:11.642Z,9.70
2022-09-30T06:23:41.623Z,7.97
2022-09-30T06:26:11.786Z,7.13
2022-09-30T06:28:40.052Z,8.93
2022-09-30T06:31:08.702Z,12.67
2022-09-30T06:33:36.750Z,7.90
2022-09-30T06:36:05.130Z,12.37
2022-09-30T06:38:33.128Z,12.37
2022-09-30T06:41:02.544Z,13.03
2022-09-30T06:43:32.917Z,9.23
2022-09-30T06:46:16.525Z,13.17
2022-09-30T06:48:48.418Z,11.57
2022-09-30T06:51:17.234Z,12.77
2022-09-30T06:53:45.145Z,14.37
2022-09-30T06:56:14.889Z,5.80
2022-09-30T06:58:43.002Z,10.70
2022-09-30T07:01:14.667Z,15.23
2022-09-30T07:03:44.324Z,4.97
2022-09-30T07:06:14.069Z,9.83
2022-09-30T07:08:42.421Z,11.80
2022-09-30T07:11:14.419Z,8.57
2022-09-30T07:13:45.948Z,9.10
2022-09-30T07:16:14.058Z,10.33
2022-09-30T07:18:43.235Z,10.97
2022-09-30T07:21:12.306Z,14.00
2022-09-30T07:23:45.726Z,9.53
2022-09-30T07:26:13.652Z,11.30
2022-09-30T07:28:43.728Z,8.40
2022-09-30T07:31:31.795Z,8.43
2022-09-30T07:34:01.005Z,11.00
2022-09-30T07:36:33.107Z,11.47
2022-09-30T07:39:06.198Z,10.83
2022-09-30T07:41:37.937Z,10.10
2022-09-30T07:44:09.830Z,7.90
2022-09-30T07:46:40.040Z,11.50
2022-09-30T07:49:09.486Z,9.50
2022-09-30T07:51:38.722Z,8.20
2022-09-30T07:54:09.275Z,10.40
2022-09-30T07:57:05.501Z,11.93
2022-09-30T07:59:28.870Z,12.33
2022-09-30T08:01:57.129Z,12.60
2022-09-30T08:04:26.990Z,11.70
2022-09-30T08:06:56.931Z,12.47
2022-09-30T08:09:26.611Z,12.53
2022-09-30T08:11:54.660Z,10.23
2022-09-30T08:14:24.657Z,10.80
2022-09-30T08:16:55.838Z,12.30
2022-09-30T08:19:25.412Z,12.03
2022-09-30T08:21:54.317Z,13.53
2022-09-30T08:24:22.871Z,13.50
2022-09-30T08:26:52.207Z,14.50
2022-09-30T08:29:35.865Z,11.17
2022-09-30T08:32:09.726Z,10.47
2022-09-30T08:34:37.647Z,10.53
2022-09-30T08:37:09.313Z,13.47
2022-09-30T08:39:37.563Z,13.77
2022-09-30T08:42:37.743Z,10.20
2022-09-30T08:45:14.460Z,7.90
2022-09-30T08:47:48.942Z,9.63
2022-09-30T08:50:21.184Z,8.03
2022-09-30T08:52:51.691Z,6.90
2022-09-30T08:55:22.719Z,8.83
2022-09-30T08:57:51.203Z,9.53
2022-09-30T09:00:20.381Z,9.03
2022-09-30T09:02:52.971Z,6.50
2022-09-30T09:05:33.218Z,6.87
2022-09-30T09:08:06.351Z,6.90
2022-09-30T09:10:41.306Z,7.37
2022-09-30T09:13:18.256Z,8.77
2022-09-30T09:15:58.377Z,7.73
2022-09-30T09:18:45.138Z,7.37
2022-09-30T09:21:25.082Z,7.80
2022-09-30T09:23:54.694Z,7.17
2022-09-30T09:26:22.722Z,6.07
2022-09-30T09:29:01.173Z,8.87
2022-09-30T09:31:29.163Z,5.80
2022-09-30T09:34:02.563Z,4.23
2022-09-30T09:36:40.497Z,10.93
2022-09-30T09:39:18.752Z,7.97
2022-09-30T09:41:52.695Z,4.83
2022-09-30T09:44:26.460Z,5.50
2022-09-30T09:46:57.393Z,5.17
2022-09-30T09:49:35.072Z,3.73
2022-09-30T09:52:35.903Z,4.43
2022-09-30T09:55:04.097Z,6.30
2022-09-30T09:57:32.560Z,5.90
2022-09-30T10:00:21.953Z,5.10
2022-09-30T10:03:04.027Z,4.73
2022-09-30T10:05:39.707Z,7.47
2022-09-30T10:08:14.694Z,4.87
2022-09-30T10:10:48.774Z,5.17
2022-09-30T10:13:18.855Z,6.13
2022-09-30T10:15:47.326Z,5.77
2022-09-30T10:18:25.195Z,5.87
2022-09-30T10:20:57.361Z,4.10
2022-09-30T10:23:29.395Z,4.87
2022-09-30T10:26:04.850Z,4.97
2022-09-30T10:28:35.966Z,5.57
2022-09-30T10:31:06.532Z,3.70
2022-09-30T10:33:37.749Z,2.70
2022-09-30T10:36:16.122Z,3.10
2022-09-30T10:38:58.943Z,3.40
2022-09-30T10:41:31.928Z,4.23
2022-09-30T10:44:01.699Z,2.83
2022-09-30T10:46:31.986Z,2.47
2022-09-30T10:49:00.525Z,2.90
2022-09-30T10:51:33.912Z,2.10
2022-09-30T10:54:02.019Z,6.27
2022-09-30T10:56:44.733Z,3.07
2022-09-30T10:59:23.903Z,3.27
2022-09-30T11:01:58.047Z,3.60
2022-09-30T11:04:31.986Z,7.17
2022-09-30T11:07:12.922Z,1.80
2022-09-30T11:09:47.820Z,2.10
2022-09-30T11:12:20.661Z,1.73
2022-09-30T11:14:55.021Z,1.80
2022-09-30T11:17:32.286Z,3.43
2022-09-30T11:20:09.372Z,4.27
2022-09-30T11:22:45.369Z,4.33
2022-09-30T11:25:15.803Z,3.70
2022-09-30T11:28:04.292Z,3.07
2022-09-30T11:30:34.686Z,2.63
2022-09-30T11:33:12.574Z,3.00
2022-09-30T11:35:52.684Z,2.53
2022-09-30T11:38:33.499Z,2.93
2022-09-30T11:41:06.405Z,3.23
2022-09-30T11:43:42.464Z,3.47
2022-09-30T11:46:24.700Z,3.00
2022-09-30T11:49:05.170Z,4.57
2022-09-30T11:51:39.489Z,5.43
2022-09-30T11:54:23.008Z,5.37
2022-09-30T11:56:53.730Z,6.27
2022-09-30T11:59:24.509Z,5.60
2022-09-30T12:01:55.520Z,5.50
2022-09-30T12:04:29.601Z,6.07
2022-09-30T12:06:59.898Z,6.63
2022-09-30T12:09:33.181Z,5.93
2022-09-30T12:12:03.319Z,5.47
2022-09-30T12:14:36.417Z,5.43
2022-09-30T12:17:09.453Z,6.43
2022-09-30T12:19:42.703Z,4.60
2022-09-30T12:22:14.523Z,4.73
2022-09-30T12:24:45.657Z,4.57
2022-09-30T12:27:18.074Z,5.67
2022-09-30T12:30:10.631Z,4.73
2022-09-30T12:33:07.695Z,4.50
2022-09-30T12:36:00.011Z,5.67
2022-09-30T12:38:49.271Z,7.20
2022-09-30T12:41:31.490Z,7.30
2022-09-30T12:44:35.511Z,6.80
2022-09-30T12:47:15.715Z,8.23
2022-09-30T12:49:44.366Z,6.67
2022-09-30T12:52:17.240Z,4.30
2022-09-30T12:54:50.007Z,4.63
2022-09-30T12:57:22.410Z,5.73
2022-09-30T12:59:55.004Z,7.47
2022-09-30T13:02:31.823Z,4.17
2022-09-30T13:05:33.213Z,4.57
2022-09-30T13:08:11.312Z,7.97
2022-09-30T13:10:47.173Z,5.43
2022-09-30T13:13:23.857Z,7.63
2022-09-30T13:15:52.546Z,6.03
2022-09-30T13:19:12.322Z,4.80
2022-09-30T13:21:40.229Z,6.23
2022-09-30T13:24:09.263Z,5.13
2022-09-30T13:26:49.369Z,4.20
2022-09-30T13:29:51.723Z,4.93
2022-09-30T13:32:33.937Z,5.53
2022-09-30T13:35:02.138Z,8.67
2022-09-30T13:37:40.895Z,4.93
2022-09-30T13:40:37.502Z,5.67
2022-09-30T13:43:12.217Z,6.27
2022-09-30T13:45:42.560Z,4.53
2022-09-30T13:48:13.735Z,4.93
2022-09-30T13:50:46.549Z,7.20
2022-09-30T13:53:21.071Z,6.20
2022-09-30T13:55:53.729Z,10.80
2022-09-30T13:58:39.414Z,7.37
2022-09-30T14:01:17.070Z,5.73
2022-09-30T14:04:00.258Z,7.17
2022-09-30T14:06:37.671Z,7.27
2022-09-30T14:09:16.273Z,6.23
2022-09-30T14:12:06.310Z,6.10
2022-09-30T14:14:48.386Z,5.57
2022-09-30T14:17:31.157Z,4.60
2022-09-30T14:20:20.149Z,4.70
2022-09-30T14:22:48.738Z,4.43
2022-09-30T14:25:18.836Z,7.00
2022-09-30T14:27:58.120Z,7.43
2022-09-30T14:30:27.469Z,3.90
2022-09-30T14:32:58.454Z,4.90
2022-09-30T14:35:29.121Z,5.60
2022-09-30T14:38:00.106Z,7.30
2022-09-30T14:40:29.892Z,8.40
2022-09-30T14:43:02.927Z,5.17
2022-09-30T14:45:33.606Z,9.63
2022-09-30T14:48:06.850Z,5.70
2022-09-30T14:50:38.134Z,7.43
2022-09-30T14:53:06.782Z,6.83
2022-09-30T14:55:38.027Z,7.33
2022-09-30T14:58:28.385Z,6.13
2022-09-30T15:01:02.945Z,5.50
2022-09-30T15:03:34.923Z,5.97
2022-09-30T15:06:03.265Z,5.90
2022-09-30T15:08:31.209Z,7.33
2022-09-30T15:10:59.324Z,6.87
2022-09-30T15:13:31.181Z,6.50
2022-09-30T15:15:59.204Z,5.33
2022-09-30T15:18:33.860Z,6.70
2022-09-30T15:21:08.646Z,5.90
2022-09-30T15:23:38.542Z,6.50
2022-09-30T15:26:07.255Z,6.33
2022-09-30T15:28:36.825Z,6.13
2022-09-30T15:31:05.358Z,7.80
2022-09-30T15:33:35.452Z,6.13
2022-09-30T15:36:06.731Z,8.27
2022-09-30T15:38:35.986Z,6.27
2022-09-30T15:41:06.417Z,7.90
2022-09-30T15:43:37.434Z,7.30
2022-09-30T15:46:21.535Z,6.97
2022-09-30T15:48:50.974Z,7.67
2022-09-30T15:51:30.092Z,6.97
2022-09-30T15:54:00.482Z,6.27
2022-09-30T15:56:35.547Z,6.93
2022-09-30T15:59:06.145Z,7.07
2022-09-30T16:01:36.610Z,6.83
2022-09-30T16:04:10.872Z,6.50
2022-09-30T16:06:45.581Z,8.43
2022-09-30T16:09:27.233Z,6.43
2022-09-30T16:12:06.514Z,6.63
2022-09-30T16:14:37.424Z,5.77
2022-09-30T16:17:05.995Z,9.40
2022-09-30T16:19:35.583Z,8.20
2022-09-30T16:22:03.534Z,7.53
2022-09-30T16:24:48.607Z,6.00
2022-09-30T16:27:31.624Z,5.83
2022-09-30T16:30:00.276Z,8.60
2022-09-30T16:32:29.690Z,7.07
2022-09-30T16:34:59.487Z,6.43
2022-09-30T16:37:27.549Z,6.07
2022-09-30T16:39:57.708Z,6.03
2022-09-30T16:42:25.598Z,6.20
2022-09-30T16:44:53.878Z,5.80
2022-09-30T16:47:22.159Z,6.63
2022-09-30T16:49:51.131Z,5.40
2022-09-30T16:52:20.411Z,8.07
2022-09-30T16:54:48.317Z,7.03
2022-09-30T16:57:17.030Z,6.80
2022-09-30T16:59:45.477Z,5.83
2022-09-30T17:02:15.549Z,6.83
2022-09-30T17:04:45.402Z,6.23
2022-09-30T17:07:15.037Z,3.53
2022-09-30T17:09:47.396Z,7.13
2022-09-30T17:12:15.579Z,3.07
2022-09-30T17:14:43.938Z,6.93
2022-09-30T17:17:13.570Z,4.73
2022-09-30T17:19:42.162Z,6.00
2022-09-30T17:22:10.147Z,5.13
2022-09-30T17:24:38.422Z,6.10
2022-09-30T17:27:07.893Z,8.17
2022-09-30T17:29:41.690Z,8.43
2022-09-30T17:32:10.376Z,4.67
2022-09-30T17:34:38.283Z,5.53
2022-09-30T17:39:39.249Z,5.90
2022-09-30T17:42:28.649Z,7.27
2022-09-30T17:44:57.441Z,4.67
2022-09-30T17:47:26.823Z,4.63
2022-09-30T17:49:55.150Z,6.57
2022-09-30T17:52:23.849Z,3.87
2022-09-30T17:54:52.644Z,5.73
2022-09-30T17:57:22.554Z,7.57
2022-09-30T17:59:50.412Z,7.00
2022-09-30T18:02:18.595Z,5.00
2022-09-30T18:04:46.588Z,6.40
2022-09-30T18:07:14.540Z,5.30
2022-09-30T18:09:42.447Z,4.77
2022-09-30T18:12:10.338Z,5.13
2022-09-30T18:14:39.755Z,7.60
2022-09-30T18:17:07.915Z,8.10
2022-09-30T18:19:36.283Z,11.73
2022-09-30T18:22:04.226Z,6.20
2022-09-30T18:24:49.653Z,4.70
2022-09-30T18:27:17.527Z,6.90
2022-09-30T18:29:46.869Z,4.50
2022-09-30T18:32:17.508Z,5.83
2022-09-30T18:34:45.447Z,5.10
2022-09-30T18:37:13.329Z,5.13
2022-09-30T18:39:41.257Z,6.27
2022-09-30T18:42:09.402Z,6.90
2022-09-30T18:44:38.170Z,4.87
2022-09-30T18:47:08.644Z,4.57
2022-09-30T18:49:36.580Z,4.20
2022-09-30T18:52:04.683Z,6.00
2022-09-30T18:54:33.731Z,7.17
2022-09-30T18:57:01.637Z,5.23
2022-09-30T18:59:29.700Z,6.87
2022-09-30T19:01:59.779Z,5.27
2022-09-30T19:04:29.146Z,4.97
2022-09-30T19:06:57.039Z,6.87
2022-09-30T19:09:26.707Z,7.93
2022-09-30T19:11:55.538Z,5.90
2022-09-30T19:14:23.801Z,6.23
2022-09-30T19:16:52.467Z,6.20
2022-09-30T19:19:22.857Z,5.47
2022-09-30T19:21:52.195Z,5.93
2022-09-30T19:24:22.972Z,3.77
2022-09-30T19:26:54.778Z,6.63
2022-09-30T19:29:23.587Z,6.10
2022-09-30T19:31:51.557Z,5.43
2022-09-30T19:34:31.058Z,6.60
2022-09-30T19:37:01.608Z,7.17
2022-09-30T19:39:40.845Z,8.57
2022-09-30T19:42:15.129Z,8.10
2022-09-30T19:44:43.035Z,6.43
2022-09-30T19:47:11.141Z,6.13
2022-09-30T19:49:39.070Z,6.27
2022-09-30T19:52:17.058Z,5.53
2022-09-30T19:54:47.133Z,4.37
2022-09-30T19:57:15.017Z,3.97
2022-09-30T19:59:42.946Z,7.10
2022-09-30T20:02:11.359Z,5.70
2022-09-30T20:04:39.745Z,5.13
2022-09-30T20:07:09.036Z,4.20
2022-09-30T20:09:36.973Z,5.03
2022-09-30T20:12:07.144Z,4.10
2022-09-30T20:15:06.853Z,5.20
2022-09-30T20:17:34.854Z,4.33
2022-09-30T20:20:20.174Z,4.67
2022-09-30T20:22:49.481Z,5.97
2022-09-30T20:25:17.449Z,10.07
2022-09-30T20:27:51.107Z,5.63
2022-09-30T20:30:20.483Z,5.07
2022-09-30T20:32:48.577Z,5.90
2022-09-30T20:35:16.594Z,3.53
2022-09-30T20:37:44.506Z,6.67
2022-09-30T20:40:13.777Z,5.00
2022-09-30T20:42:41.755Z,5.47
2022-09-30T20:45:11.074Z,3.37
2022-09-30T20:47:39.773Z,7.20
2022-09-30T20:50:08.769Z,4.13
2022-09-30T20:52:36.678Z,5.77
2022-09-30T20:55:06.027Z,4.57
2022-09-30T20:57:35.325Z,5.57
2022-09-30T21:00:03.267Z,3.67
2022-09-30T21:02:31.173Z,4.13
2022-09-30T21:04:59.675Z,4.93
2022-09-30T21:07:28.100Z,5.00
2022-09-30T21:09:56.021Z,6.43
2022-09-30T21:12:23.937Z,5.30
2022-09-30T21:14:53.185Z,4.47
2022-09-30T21:17:21.371Z,4.80
2022-09-30T21:19:49.254Z,4.67
2022-09-30T21:22:17.227Z,6.47
2022-09-30T21:24:45.358Z,5.40
2022-09-30T21:27:13.809Z,4.80
2022-09-30T21:29:41.806Z,4.10
2022-09-30T21:32:11.129Z,5.20
2022-09-30T21:34:39.840Z,6.97
2022-09-30T21:37:07.734Z,4.57
2022-09-30T21:39:35.811Z,5.60
2022-09-30T21:42:04.674Z,6.63
2022-09-30T21:44:32.562Z,3.37
2022-09-30T21:47:00.643Z,6.27
2022-09-30T21:49:29.906Z,5.03
2022-09-30T21:51:57.810Z,4.67
2022-09-30T21:54:25.787Z,4.30
2022-09-30T21:56:53.680Z,4.90
2022-09-30T21:59:21.553Z,4.37
2022-09-30T22:01:49.558Z,4.77
2022-09-30T22:04:19.501Z,4.13
2022-09-30T22:06:48.813Z,4.73
2022-09-30T22:09:16.779Z,5.33
2022-09-30T22:11:44.718Z,3.83
2022-09-30T22:14:12.683Z,5.93
2022-09-30T22:16:40.586Z,2.87
2022-09-30T22:19:10.074Z,6.77
2022-09-30T22:21:38.632Z,4.57
2022-09-30T22:24:09.177Z,5.47
2022-09-30T22:26:37.955Z,5.93
2022-09-30T22:29:08.028Z,4.43
2022-09-30T22:31:36.511Z,3.67
2022-09-30T22:34:26.011Z,4.70
2022-09-30T22:37:11.654Z,4.23
2022-09-30T22:39:40.932Z,4.53
2022-09-30T22:42:08.830Z,3.30
2022-09-30T22:44:38.041Z,3.93
2022-09-30T22:47:06.409Z,3.83
2022-09-30T22:49:34.341Z,3.93
2022-09-30T22:52:03.810Z,3.87
2022-09-30T22:54:32.210Z,3.17
2022-09-30T22:57:01.588Z,3.23
2022-09-30T22:59:30.545Z,3.00
2022-09-30T23:01:58.753Z,3.07
2022-09-30T23:04:27.064Z,3.20
2022-09-30T23:06:56.437Z,3.30
2022-09-30T23:09:24.631Z,2.50
2022-09-30T23:11:53.706Z,6.80
2022-09-30T23:14:23.375Z,4.63
2022-09-30T23:16:51.768Z,5.10
2022-09-30T23:19:19.849Z,4.10
2022-09-30T23:21:47.922Z,2.67
2022-09-30T23:24:16.142Z,5.20
2022-09-30T23:26:44.639Z,3.57
2022-09-30T23:29:13.566Z,2.50
2022-09-30T23:31:43.033Z,4.10
2022-09-30T23:34:11.120Z,2.17
2022-09-30T23:36:39.238Z,2.33
2022-09-30T23:39:09.375Z,4.67
2022-09-30T23:41:37.574Z,2.37
2022-09-30T23:44:05.966Z,4.03
2022-09-30T23:46:33.858Z,3.07
2022-09-30T23:49:03.129Z,2.80
2022-09-30T23:51:34.503Z,5.33
2022-09-30T23:54:03.073Z,4.63
2022-09-30T23:56:32.131Z,2.20
2022-09-30T23:59:00.172Z,6.40
